sensor_id;sensor_type;location;lat;lon;timestamp;pressure;altitude;pressure_sealevel;temperature;humidity
8416;BME280;4245;42.120;24.732;2023-02-04T00:02:13;99220.75;;;5.30;60.84
8416;BME280;4245;42.120;24.732;2023-02-04T00:04:40;99216.97;;;5.35;62.40
8416;BME280;4245;42.120;24.732;2023-02-04T00:07:07;99217.66;;;5.21;64.28
8416;BME280;4245;42.120;24.732;2023-02-04T00:09:34;99212.00;;;5.29;63.71
8416;BME280;4245;42.120;24.732;2023-02-04T00:12:02;99209.59;;;5.24;63.52
8416;BME280;4245;42.120;24.732;2023-02-04T00:14:29;99201.34;;;5.13;65.06
8416;BME280;4245;42.120;24.732;2023-02-04T00:16:55;99199.22;;;5.21;65.12
8416;BME280;4245;42.120;24.732;2023-02-04T00:19:22;99191.78;;;5.30;65.06
8416;BME280;4245;42.120;24.732;2023-02-04T00:21:49;99194.34;;;5.31;65.35
8416;BME280;4245;42.120;24.732;2023-02-04T00:24:15;99195.94;;;5.34;64.51
8416;BME280;4245;42.120;24.732;2023-02-04T00:26:42;99198.53;;;5.35;63.80
8416;BME280;4245;42.120;24.732;2023-02-04T00:29:10;99200.84;;;5.41;63.96
8416;BME280;4245;42.120;24.732;2023-02-04T00:31:37;99189.38;;;5.42;63.41
8416;BME280;4245;42.120;24.732;2023-02-04T00:34:04;99185.28;;;5.37;65.10
8416;BME280;4245;42.120;24.732;2023-02-04T00:36:31;99181.38;;;5.44;64.38
8416;BME280;4245;42.120;24.732;2023-02-04T00:38:57;99174.97;;;5.49;63.29
8416;BME280;4245;42.120;24.732;2023-02-04T00:41:24;99183.09;;;5.45;64.30
8416;BME280;4245;42.120;24.732;2023-02-04T00:43:51;99176.81;;;5.47;64.37
8416;BME280;4245;42.120;24.732;2023-02-04T00:46:19;99176.00;;;5.47;63.23
8416;BME280;4245;42.120;24.732;2023-02-04T00:48:46;99187.59;;;5.43;62.72
8416;BME280;4245;42.120;24.732;2023-02-04T00:51:13;99182.88;;;5.49;62.37
8416;BME280;4245;42.120;24.732;2023-02-04T00:53:39;99180.00;;;5.54;60.92
8416;BME280;4245;42.120;24.732;2023-02-04T00:56:06;99181.78;;;5.71;60.60
8416;BME280;4245;42.120;24.732;2023-02-04T00:58:33;99177.13;;;5.58;60.20
8416;BME280;4245;42.120;24.732;2023-02-04T01:01:00;99170.69;;;5.64;59.77
8416;BME280;4245;42.120;24.732;2023-02-04T01:03:28;99178.19;;;5.72;58.90
8416;BME280;4245;42.120;24.732;2023-02-04T01:05:55;99162.16;;;5.59;60.58
8416;BME280;4245;42.120;24.732;2023-02-04T01:08:22;99162.97;;;5.61;59.90
8416;BME280;4245;42.120;24.732;2023-02-04T01:10:49;99150.78;;;5.58;60.89
8416;BME280;4245;42.120;24.732;2023-02-04T01:13:15;99139.25;;;5.44;62.35
8416;BME280;4245;42.120;24.732;2023-02-04T01:15:42;99136.16;;;5.36;63.71
8416;BME280;4245;42.120;24.732;2023-02-04T01:18:09;99122.44;;;5.29;64.98
8416;BME280;4245;42.120;24.732;2023-02-04T01:20:39;99117.25;;;5.45;64.88
8416;BME280;4245;42.120;24.732;2023-02-04T01:23:05;99118.06;;;5.62;62.87
8416;BME280;4245;42.120;24.732;2023-02-04T01:25:32;99105.78;;;5.46;63.44
8416;BME280;4245;42.120;24.732;2023-02-04T01:27:59;99095.63;;;5.38;64.29
8416;BME280;4245;42.120;24.732;2023-02-04T01:30:26;99086.88;;;5.38;63.64
8416;BME280;4245;42.120;24.732;2023-02-04T01:32:53;99070.63;;;5.30;63.20
8416;BME280;4245;42.120;24.732;2023-02-04T01:35:19;99068.94;;;5.29;62.91
8416;BME280;4245;42.120;24.732;2023-02-04T01:37:48;99045.84;;;5.34;63.37
8416;BME280;4245;42.120;24.732;2023-02-04T01:40:15;99043.38;;;5.31;63.52
8416;BME280;4245;42.120;24.732;2023-02-04T01:42:41;99041.75;;;5.28;64.10
8416;BME280;4245;42.120;24.732;2023-02-04T01:45:09;99041.22;;;5.21;64.38
8416;BME280;4245;42.120;24.732;2023-02-04T01:47:37;99050.91;;;5.21;63.90
8416;BME280;4245;42.120;24.732;2023-02-04T01:50:06;99052.31;;;4.76;66.64
8416;BME280;4245;42.120;24.732;2023-02-04T01:52:35;99048.22;;;4.71;67.85
8416;BME280;4245;42.120;24.732;2023-02-04T01:55:11;99044.38;;;4.78;66.64
8416;BME280;4245;42.120;24.732;2023-02-04T01:57:38;99049.38;;;4.82;66.96
8416;BME280;4245;42.120;24.732;2023-02-04T02:00:09;99040.97;;;4.93;65.36
8416;BME280;4245;42.120;24.732;2023-02-04T02:02:40;99037.22;;;4.97;67.11
8416;BME280;4245;42.120;24.732;2023-02-04T02:05:09;99037.06;;;5.00;66.66
8416;BME280;4245;42.120;24.732;2023-02-04T02:07:36;99026.00;;;5.11;66.54
8416;BME280;4245;42.120;24.732;2023-02-04T02:10:07;99022.19;;;5.16;65.77
8416;BME280;4245;42.120;24.732;2023-02-04T02:12:35;99022.81;;;5.21;66.21
8416;BME280;4245;42.120;24.732;2023-02-04T02:15:03;99026.97;;;5.25;66.08
8416;BME280;4245;42.120;24.732;2023-02-04T02:17:30;99012.88;;;5.27;64.65
8416;BME280;4245;42.120;24.732;2023-02-04T02:19:57;99017.22;;;5.28;64.20
8416;BME280;4245;42.120;24.732;2023-02-04T02:22:27;99011.59;;;5.18;65.76
8416;BME280;4245;42.120;24.732;2023-02-04T02:24:56;99007.25;;;5.17;65.81
8416;BME280;4245;42.120;24.732;2023-02-04T02:27:23;99003.50;;;5.21;66.55
8416;BME280;4245;42.120;24.732;2023-02-04T02:29:50;99004.06;;;5.28;66.51
8416;BME280;4245;42.120;24.732;2023-02-04T02:32:17;98998.63;;;5.31;65.99
8416;BME280;4245;42.120;24.732;2023-02-04T02:34:45;99000.81;;;5.38;64.28
8416;BME280;4245;42.120;24.732;2023-02-04T02:37:12;98978.91;;;5.38;64.76
8416;BME280;4245;42.120;24.732;2023-02-04T02:39:41;98983.16;;;5.40;65.91
8416;BME280;4245;42.120;24.732;2023-02-04T02:42:13;98986.34;;;5.47;65.27
8416;BME280;4245;42.120;24.732;2023-02-04T02:44:41;98981.09;;;5.30;66.56
8416;BME280;4245;42.120;24.732;2023-02-04T02:47:11;98973.38;;;5.42;65.31
8416;BME280;4245;42.120;24.732;2023-02-04T02:49:40;98968.91;;;5.44;66.21
8416;BME280;4245;42.120;24.732;2023-02-04T02:52:10;98965.75;;;5.53;64.88
8416;BME280;4245;42.120;24.732;2023-02-04T02:54:37;98975.19;;;5.57;65.51
8416;BME280;4245;42.120;24.732;2023-02-04T02:57:10;98954.47;;;5.51;65.70
8416;BME280;4245;42.120;24.732;2023-02-04T02:59:40;98949.88;;;5.55;65.32
8416;BME280;4245;42.120;24.732;2023-02-04T03:02:08;98951.47;;;5.57;65.50
8416;BME280;4245;42.120;24.732;2023-02-04T03:04:39;98938.31;;;5.57;64.05
8416;BME280;4245;42.120;24.732;2023-02-04T03:07:08;98936.97;;;5.50;64.64
8416;BME280;4245;42.120;24.732;2023-02-04T03:09:35;98926.16;;;5.55;65.08
8416;BME280;4245;42.120;24.732;2023-02-04T03:12:03;98932.09;;;5.58;64.49
8416;BME280;4245;42.120;24.732;2023-02-04T03:14:31;98927.09;;;5.54;64.42
8416;BME280;4245;42.120;24.732;2023-02-04T03:17:01;98937.56;;;5.55;64.46
8416;BME280;4245;42.120;24.732;2023-02-04T03:19:29;98933.97;;;5.72;62.29
8416;BME280;4245;42.120;24.732;2023-02-04T03:21:57;98926.50;;;5.64;63.91
8416;BME280;4245;42.120;24.732;2023-02-04T03:24:24;98929.31;;;5.46;64.23
8416;BME280;4245;42.120;24.732;2023-02-04T03:26:51;98925.72;;;5.31;65.30
8416;BME280;4245;42.120;24.732;2023-02-04T03:29:18;98930.78;;;5.18;67.52
8416;BME280;4245;42.120;24.732;2023-02-04T03:31:44;98930.53;;;5.23;67.73
8416;BME280;4245;42.120;24.732;2023-02-04T03:34:13;98921.31;;;5.32;66.32
8416;BME280;4245;42.120;24.732;2023-02-04T03:36:39;98924.91;;;5.46;64.55
8416;BME280;4245;42.120;24.732;2023-02-04T03:39:06;98923.94;;;5.32;65.86
8416;BME280;4245;42.120;24.732;2023-02-04T03:41:33;98918.72;;;5.14;67.59
8416;BME280;4245;42.120;24.732;2023-02-04T03:44:00;98917.81;;;5.15;68.82
8416;BME280;4245;42.120;24.732;2023-02-04T03:46:26;98914.66;;;5.24;67.88
8416;BME280;4245;42.120;24.732;2023-02-04T03:48:54;98906.63;;;4.95;67.89
8416;BME280;4245;42.120;24.732;2023-02-04T03:51:22;98905.09;;;4.91;69.30
8416;BME280;4245;42.120;24.732;2023-02-04T03:53:48;98900.69;;;4.91;69.70
8416;BME280;4245;42.120;24.732;2023-02-04T03:56:15;98893.69;;;5.07;67.73
8416;BME280;4245;42.120;24.732;2023-02-04T03:58:42;98886.53;;;4.94;68.12
8416;BME280;4245;42.120;24.732;2023-02-04T04:01:09;98881.03;;;4.98;67.98
8416;BME280;4245;42.120;24.732;2023-02-04T04:03:36;98882.03;;;4.96;67.92
8416;BME280;4245;42.120;24.732;2023-02-04T04:06:03;98881.34;;;4.92;65.96
8416;BME280;4245;42.120;24.732;2023-02-04T04:08:34;98865.03;;;4.86;66.53
8416;BME280;4245;42.120;24.732;2023-02-04T04:11:01;98865.22;;;4.98;64.58
8416;BME280;4245;42.120;24.732;2023-02-04T04:13:28;98854.34;;;4.89;65.81
8416;BME280;4245;42.120;24.732;2023-02-04T04:15:54;98859.00;;;4.84;64.81
8416;BME280;4245;42.120;24.732;2023-02-04T04:18:21;98859.44;;;4.92;66.55
8416;BME280;4245;42.120;24.732;2023-02-04T04:20:48;98860.91;;;4.97;64.52
8416;BME280;4245;42.120;24.732;2023-02-04T04:23:14;98847.47;;;5.02;63.33
8416;BME280;4245;42.120;24.732;2023-02-04T04:25:43;98848.84;;;5.09;63.87
8416;BME280;4245;42.120;24.732;2023-02-04T04:28:10;98855.31;;;5.03;63.56
8416;BME280;4245;42.120;24.732;2023-02-04T04:30:36;98854.72;;;4.98;64.87
8416;BME280;4245;42.120;24.732;2023-02-04T04:33:03;98859.78;;;5.01;65.36
8416;BME280;4245;42.120;24.732;2023-02-04T04:35:30;98863.94;;;5.05;65.18
8416;BME280;4245;42.120;24.732;2023-02-04T04:37:57;98862.59;;;5.14;67.71
8416;BME280;4245;42.120;24.732;2023-02-04T04:40:23;98866.34;;;5.10;64.84
8416;BME280;4245;42.120;24.732;2023-02-04T04:42:52;98858.88;;;5.18;62.94
8416;BME280;4245;42.120;24.732;2023-02-04T04:45:19;98848.78;;;5.26;62.28
8416;BME280;4245;42.120;24.732;2023-02-04T04:47:46;98825.88;;;5.42;60.80
8416;BME280;4245;42.120;24.732;2023-02-04T04:50:13;98828.38;;;5.30;61.50
8416;BME280;4245;42.120;24.732;2023-02-04T04:52:40;98834.00;;;5.08;63.41
8416;BME280;4245;42.120;24.732;2023-02-04T04:55:07;98833.91;;;4.94;63.00
8416;BME280;4245;42.120;24.732;2023-02-04T04:57:34;98830.94;;;5.15;62.79
8416;BME280;4245;42.120;24.732;2023-02-04T05:00:03;98825.13;;;5.09;63.51
8416;BME280;4245;42.120;24.732;2023-02-04T05:02:30;98826.84;;;5.25;62.78
8416;BME280;4245;42.120;24.732;2023-02-04T05:04:57;98833.03;;;5.09;65.82
8416;BME280;4245;42.120;24.732;2023-02-04T05:07:23;98833.31;;;5.20;62.73
8416;BME280;4245;42.120;24.732;2023-02-04T05:09:50;98832.03;;;5.11;63.07
8416;BME280;4245;42.120;24.732;2023-02-04T05:12:17;98828.53;;;4.95;64.02
8416;BME280;4245;42.120;24.732;2023-02-04T05:14:44;98835.06;;;4.88;65.23
8416;BME280;4245;42.120;24.732;2023-02-04T05:17:12;98834.31;;;4.86;66.75
8416;BME280;4245;42.120;24.732;2023-02-04T05:19:39;98830.75;;;4.87;70.24
8416;BME280;4245;42.120;24.732;2023-02-04T05:22:05;98830.84;;;5.01;67.68
8416;BME280;4245;42.120;24.732;2023-02-04T05:24:32;98820.50;;;4.98;67.54
8416;BME280;4245;42.120;24.732;2023-02-04T05:26:59;98816.81;;;5.01;67.87
8416;BME280;4245;42.120;24.732;2023-02-04T05:29:26;98808.34;;;4.96;69.54
8416;BME280;4245;42.120;24.732;2023-02-04T05:31:52;98820.25;;;5.03;70.13
8416;BME280;4245;42.120;24.732;2023-02-04T05:34:20;98812.56;;;5.14;68.19
8416;BME280;4245;42.120;24.732;2023-02-04T05:36:47;98818.03;;;5.11;69.49
8416;BME280;4245;42.120;24.732;2023-02-04T05:39:14;98823.22;;;5.12;69.52
8416;BME280;4245;42.120;24.732;2023-02-04T05:41:41;98826.84;;;5.10;69.07
8416;BME280;4245;42.120;24.732;2023-02-04T05:44:08;98817.84;;;5.14;69.25
8416;BME280;4245;42.120;24.732;2023-02-04T05:46:34;98822.25;;;5.13;68.79
8416;BME280;4245;42.120;24.732;2023-02-04T05:49:02;98819.53;;;5.15;71.15
8416;BME280;4245;42.120;24.732;2023-02-04T05:51:30;98827.13;;;5.21;69.51
8416;BME280;4245;42.120;24.732;2023-02-04T05:53:57;98825.75;;;5.30;67.37
8416;BME280;4245;42.120;24.732;2023-02-04T05:56:24;98822.69;;;5.37;69.49
8416;BME280;4245;42.120;24.732;2023-02-04T05:58:51;98817.78;;;5.31;71.08
8416;BME280;4245;42.120;24.732;2023-02-04T06:01:17;98818.50;;;5.33;71.01
8416;BME280;4245;42.120;24.732;2023-02-04T06:03:44;98823.38;;;5.41;70.17
8416;BME280;4245;42.120;24.732;2023-02-04T06:06:11;98825.13;;;5.56;66.95
8416;BME280;4245;42.120;24.732;2023-02-04T06:08:39;98832.34;;;5.52;68.17
8416;BME280;4245;42.120;24.732;2023-02-04T06:11:06;98834.81;;;5.55;67.93
8416;BME280;4245;42.120;24.732;2023-02-04T06:13:33;98835.47;;;5.59;69.25
8416;BME280;4245;42.120;24.732;2023-02-04T06:15:59;98833.25;;;5.67;68.70
8416;BME280;4245;42.120;24.732;2023-02-04T06:18:26;98830.53;;;5.68;68.37
8416;BME280;4245;42.120;24.732;2023-02-04T06:20:53;98827.81;;;5.70;66.79
8416;BME280;4245;42.120;24.732;2023-02-04T06:23:20;98832.25;;;5.69;68.24
8416;BME280;4245;42.120;24.732;2023-02-04T06:25:48;98823.72;;;5.80;69.21
8416;BME280;4245;42.120;24.732;2023-02-04T06:28:14;98836.13;;;5.78;68.78
8416;BME280;4245;42.120;24.732;2023-02-04T06:30:41;98840.88;;;5.72;68.21
8416;BME280;4245;42.120;24.732;2023-02-04T06:33:08;98843.00;;;5.96;66.70
8416;BME280;4245;42.120;24.732;2023-02-04T06:35:35;98836.47;;;5.72;68.86
8416;BME280;4245;42.120;24.732;2023-02-04T06:38:02;98842.13;;;5.66;68.36
8416;BME280;4245;42.120;24.732;2023-02-04T06:40:28;98838.19;;;5.73;67.98
8416;BME280;4245;42.120;24.732;2023-02-04T06:42:57;98842.50;;;5.74;69.01
8416;BME280;4245;42.120;24.732;2023-02-04T06:45:23;98842.31;;;5.77;68.47
8416;BME280;4245;42.120;24.732;2023-02-04T06:47:50;98835.78;;;5.84;68.56
8416;BME280;4245;42.120;24.732;2023-02-04T06:50:17;98863.25;;;5.80;69.39
8416;BME280;4245;42.120;24.732;2023-02-04T06:52:44;98862.16;;;5.53;69.78
8416;BME280;4245;42.120;24.732;2023-02-04T06:55:11;98856.31;;;5.48;71.06
8416;BME280;4245;42.120;24.732;2023-02-04T06:57:38;98876.19;;;5.38;71.89
8416;BME280;4245;42.120;24.732;2023-02-04T07:00:09;98869.13;;;5.54;71.01
8416;BME280;4245;42.120;24.732;2023-02-04T07:02:36;98862.19;;;5.37;73.13
8416;BME280;4245;42.120;24.732;2023-02-04T07:05:04;98872.38;;;5.59;71.52
8416;BME280;4245;42.120;24.732;2023-02-04T07:07:31;98868.53;;;5.80;71.40
8416;BME280;4245;42.120;24.732;2023-02-04T07:09:58;98869.53;;;5.78;71.35
8416;BME280;4245;42.120;24.732;2023-02-04T07:12:25;98878.09;;;5.81;71.04
8416;BME280;4245;42.120;24.732;2023-02-04T07:14:52;98877.28;;;5.65;70.80
8416;BME280;4245;42.120;24.732;2023-02-04T07:17:21;98868.59;;;5.79;70.67
8416;BME280;4245;42.120;24.732;2023-02-04T07:19:48;98878.09;;;5.97;67.86
8416;BME280;4245;42.120;24.732;2023-02-04T07:22:14;98886.97;;;5.80;68.93
8416;BME280;4245;42.120;24.732;2023-02-04T07:24:41;98886.78;;;5.99;69.71
8416;BME280;4245;42.120;24.732;2023-02-04T07:27:08;98877.50;;;6.07;70.27
8416;BME280;4245;42.120;24.732;2023-02-04T07:29:35;98881.72;;;6.10;68.92
8416;BME280;4245;42.120;24.732;2023-02-04T07:32:01;98869.28;;;6.28;69.40
8416;BME280;4245;42.120;24.732;2023-02-04T07:34:30;98872.72;;;6.58;68.29
8416;BME280;4245;42.120;24.732;2023-02-04T07:36:56;98871.41;;;6.65;68.42
8416;BME280;4245;42.120;24.732;2023-02-04T07:39:23;98876.75;;;6.78;68.99
8416;BME280;4245;42.120;24.732;2023-02-04T07:41:50;98868.47;;;6.98;68.88
8416;BME280;4245;42.120;24.732;2023-02-04T07:46:52;98866.91;;;7.36;68.69
8416;BME280;4245;42.120;24.732;2023-02-04T07:49:19;98858.16;;;7.63;67.82
8416;BME280;4245;42.120;24.732;2023-02-04T07:51:47;98852.28;;;8.11;66.62
8416;BME280;4245;42.120;24.732;2023-02-04T07:54:14;98848.25;;;8.70;63.94
8416;BME280;4245;42.120;24.732;2023-02-04T07:56:41;98843.78;;;9.09;60.78
8416;BME280;4245;42.120;24.732;2023-02-04T07:59:07;98835.44;;;8.90;60.62
8416;BME280;4245;42.120;24.732;2023-02-04T08:01:34;98828.00;;;8.95;60.83
8416;BME280;4245;42.120;24.732;2023-02-04T08:04:01;98814.84;;;9.06;60.61
8416;BME280;4245;42.120;24.732;2023-02-04T08:06:28;98847.69;;;9.03;61.28
8416;BME280;4245;42.120;24.732;2023-02-04T08:08:56;98817.66;;;9.15;61.75
8416;BME280;4245;42.120;24.732;2023-02-04T08:11:23;98818.75;;;9.13;62.00
8416;BME280;4245;42.120;24.732;2023-02-04T08:13:51;98799.31;;;9.25;61.22
8416;BME280;4245;42.120;24.732;2023-02-04T08:16:18;98801.75;;;9.28;62.01
8416;BME280;4245;42.120;24.732;2023-02-04T08:18:44;98804.16;;;9.79;60.11
8416;BME280;4245;42.120;24.732;2023-02-04T08:21:11;98803.44;;;10.35;58.02
8416;BME280;4245;42.120;24.732;2023-02-04T08:23:38;98798.38;;;10.66;57.00
8416;BME280;4245;42.120;24.732;2023-02-04T08:26:08;98791.75;;;11.05;54.92
8416;BME280;4245;42.120;24.732;2023-02-04T08:28:36;98785.66;;;11.47;53.15
8416;BME280;4245;42.120;24.732;2023-02-04T08:31:03;98786.59;;;11.89;51.71
8416;BME280;4245;42.120;24.732;2023-02-04T08:33:31;98782.41;;;12.07;49.97
8416;BME280;4245;42.120;24.732;2023-02-04T08:35:58;98772.69;;;11.43;51.37
8416;BME280;4245;42.120;24.732;2023-02-04T08:38:24;98769.25;;;11.63;51.50
8416;BME280;4245;42.120;24.732;2023-02-04T08:40:51;98771.09;;;11.94;50.49
8416;BME280;4245;42.120;24.732;2023-02-04T08:43:19;98757.16;;;11.70;50.12
8416;BME280;4245;42.120;24.732;2023-02-04T08:45:46;98754.47;;;11.38;50.63
8416;BME280;4245;42.120;24.732;2023-02-04T08:48:13;98760.56;;;11.93;49.35
8416;BME280;4245;42.120;24.732;2023-02-04T08:50:40;98767.22;;;12.19;48.08
8416;BME280;4245;42.120;24.732;2023-02-04T08:53:07;98755.78;;;12.49;45.26
8416;BME280;4245;42.120;24.732;2023-02-04T08:55:33;98778.78;;;12.59;43.46
8416;BME280;4245;42.120;24.732;2023-02-04T08:58:00;98778.78;;;12.59;42.65
8416;BME280;4245;42.120;24.732;2023-02-04T09:00:28;98780.03;;;12.55;42.97
8416;BME280;4245;42.120;24.732;2023-02-04T09:02:55;98759.63;;;12.66;42.65
8416;BME280;4245;42.120;24.732;2023-02-04T09:05:22;98762.25;;;12.86;42.68
8416;BME280;4245;42.120;24.732;2023-02-04T09:07:49;98758.59;;;13.27;41.42
8416;BME280;4245;42.120;24.732;2023-02-04T09:10:16;98776.63;;;13.54;40.37
8416;BME280;4245;42.120;24.732;2023-02-04T09:12:42;98785.31;;;13.46;41.04
8416;BME280;4245;42.120;24.732;2023-02-04T09:15:10;98785.31;;;13.56;40.14
8416;BME280;4245;42.120;24.732;2023-02-04T09:17:38;98775.53;;;13.85;39.43
8416;BME280;4245;42.120;24.732;2023-02-04T09:20:09;98771.59;;;14.18;39.26
8416;BME280;4245;42.120;24.732;2023-02-04T09:22:37;98759.50;;;13.95;39.32
8416;BME280;4245;42.120;24.732;2023-02-04T09:25:04;98786.50;;;13.14;41.05
8416;BME280;4245;42.120;24.732;2023-02-04T09:27:31;98763.66;;;12.60;42.17
8416;BME280;4245;42.120;24.732;2023-02-04T09:29:58;98760.72;;;12.12;42.98
8416;BME280;4245;42.120;24.732;2023-02-04T09:32:25;98739.59;;;11.67;44.12
8416;BME280;4245;42.120;24.732;2023-02-04T09:34:53;98729.53;;;11.50;44.77
8416;BME280;4245;42.120;24.732;2023-02-04T09:37:20;98729.53;;;11.50;44.74
8416;BME280;4245;42.120;24.732;2023-02-04T09:39:48;98721.69;;;11.38;45.02
8416;BME280;4245;42.120;24.732;2023-02-04T09:42:15;98724.88;;;11.31;44.45
8416;BME280;4245;42.120;24.732;2023-02-04T09:44:42;98721.97;;;11.34;45.02
8416;BME280;4245;42.120;24.732;2023-02-04T09:47:10;98736.97;;;11.24;44.97
8416;BME280;4245;42.120;24.732;2023-02-04T09:49:42;98708.50;;;11.15;45.52
8416;BME280;4245;42.120;24.732;2023-02-04T09:52:13;98711.88;;;11.17;45.91
8416;BME280;4245;42.120;24.732;2023-02-04T09:54:41;98710.19;;;11.16;46.04
8416;BME280;4245;42.120;24.732;2023-02-04T09:57:12;98717.75;;;11.32;46.03
8416;BME280;4245;42.120;24.732;2023-02-04T09:59:41;98716.50;;;11.68;45.32
8416;BME280;4245;42.120;24.732;2023-02-04T10:02:18;98706.09;;;11.44;45.77
8416;BME280;4245;42.120;24.732;2023-02-04T10:04:46;98709.75;;;11.75;45.14
8416;BME280;4245;42.120;24.732;2023-02-04T10:07:18;98687.41;;;11.87;44.53
8416;BME280;4245;42.120;24.732;2023-02-04T10:09:49;98703.88;;;11.60;45.39
8416;BME280;4245;42.120;24.732;2023-02-04T10:12:17;98711.88;;;11.49;45.70
8416;BME280;4245;42.120;24.732;2023-02-04T10:14:44;98707.53;;;11.48;46.22
8416;BME280;4245;42.120;24.732;2023-02-04T10:17:11;98708.31;;;11.28;46.29
8416;BME280;4245;42.120;24.732;2023-02-04T10:19:41;98698.72;;;11.05;47.09
8416;BME280;4245;42.120;24.732;2023-02-04T10:22:16;98689.72;;;10.85;47.33
8416;BME280;4245;42.120;24.732;2023-02-04T10:24:43;98710.75;;;10.77;47.75
8416;BME280;4245;42.120;24.732;2023-02-04T10:27:11;98686.94;;;10.75;48.14
8416;BME280;4245;42.120;24.732;2023-02-04T10:29:40;98687.47;;;10.69;48.38
8416;BME280;4245;42.120;24.732;2023-02-04T10:32:25;98698.03;;;10.80;48.51
8416;BME280;4245;42.120;24.732;2023-02-04T10:34:56;98663.78;;;11.09;47.75
8416;BME280;4245;42.120;24.732;2023-02-04T10:37:25;98677.06;;;11.20;47.51
8416;BME280;4245;42.120;24.732;2023-02-04T10:39:52;98672.72;;;11.19;47.76
8416;BME280;4245;42.120;24.732;2023-02-04T10:42:21;98674.44;;;11.41;47.00
8416;BME280;4245;42.120;24.732;2023-02-04T10:44:48;98652.78;;;11.46;46.51
8416;BME280;4245;42.120;24.732;2023-02-04T10:47:17;98658.03;;;11.36;46.82
8416;BME280;4245;42.120;24.732;2023-02-04T10:49:53;98645.34;;;11.28;46.97
8416;BME280;4245;42.120;24.732;2023-02-04T10:52:21;98659.00;;;11.35;47.24
8416;BME280;4245;42.120;24.732;2023-02-04T10:54:51;98649.91;;;11.38;47.22
8416;BME280;4245;42.120;24.732;2023-02-04T10:57:20;98653.03;;;11.22;47.52
8416;BME280;4245;42.120;24.732;2023-02-04T10:59:49;98644.09;;;11.23;48.24
8416;BME280;4245;42.120;24.732;2023-02-04T11:02:32;98637.00;;;11.33;47.70
8416;BME280;4245;42.120;24.732;2023-02-04T11:05:01;98632.59;;;11.22;48.10
8416;BME280;4245;42.120;24.732;2023-02-04T11:07:28;98633.06;;;11.27;47.94
8416;BME280;4245;42.120;24.732;2023-02-04T11:09:57;98639.47;;;11.25;47.76
8416;BME280;4245;42.120;24.732;2023-02-04T11:12:37;98626.81;;;11.17;48.19
8416;BME280;4245;42.120;24.732;2023-02-04T11:15:05;98622.53;;;11.26;48.42
8416;BME280;4245;42.120;24.732;2023-02-04T11:17:34;98623.00;;;11.31;48.29
8416;BME280;4245;42.120;24.732;2023-02-04T11:20:13;98623.41;;;11.47;48.37
8416;BME280;4245;42.120;24.732;2023-02-04T11:22:42;98619.59;;;11.61;48.35
8416;BME280;4245;42.120;24.732;2023-02-04T11:25:31;98618.56;;;11.73;48.01
8416;BME280;4245;42.120;24.732;2023-02-04T11:27:59;98619.75;;;11.80;48.50
8416;BME280;4245;42.120;24.732;2023-02-04T11:30:30;98617.31;;;11.77;47.96
8416;BME280;4245;42.120;24.732;2023-02-04T11:33:01;98616.28;;;11.89;47.99
8416;BME280;4245;42.120;24.732;2023-02-04T11:35:28;98614.25;;;12.02;47.44
8416;BME280;4245;42.120;24.732;2023-02-04T11:37:55;98604.31;;;12.04;47.13
8416;BME280;4245;42.120;24.732;2023-02-04T11:40:25;98603.94;;;12.09;46.88
8416;BME280;4245;42.120;24.732;2023-02-04T11:43:00;98596.13;;;12.27;46.10
8416;BME280;4245;42.120;24.732;2023-02-04T11:45:31;98605.41;;;12.32;46.09
8416;BME280;4245;42.120;24.732;2023-02-04T11:48:00;98600.97;;;12.42;45.86
8416;BME280;4245;42.120;24.732;2023-02-04T11:50:29;98585.94;;;12.32;46.38
8416;BME280;4245;42.120;24.732;2023-02-04T11:52:58;98591.22;;;11.92;47.50
8416;BME280;4245;42.120;24.732;2023-02-04T11:55:27;98579.69;;;11.61;49.15
8416;BME280;4245;42.120;24.732;2023-02-04T11:57:55;98587.41;;;11.22;50.77
8416;BME280;4245;42.120;24.732;2023-02-04T12:00:25;98564.97;;;11.15;51.65
8416;BME280;4245;42.120;24.732;2023-02-04T12:02:55;98590.41;;;10.97;52.36
8416;BME280;4245;42.120;24.732;2023-02-04T12:05:35;98574.56;;;11.27;52.13
8416;BME280;4245;42.120;24.732;2023-02-04T12:08:09;98596.34;;;11.63;51.39
8416;BME280;4245;42.120;24.732;2023-02-04T12:10:36;98587.59;;;12.23;50.55
8416;BME280;4245;42.120;24.732;2023-02-04T12:13:12;98588.03;;;12.97;49.38
8416;BME280;4245;42.120;24.732;2023-02-04T12:15:40;98595.72;;;13.67;47.54
8416;BME280;4245;42.120;24.732;2023-02-04T12:18:09;98594.19;;;13.74;47.58
8416;BME280;4245;42.120;24.732;2023-02-04T12:20:37;98587.88;;;13.56;47.21
8416;BME280;4245;42.120;24.732;2023-02-04T12:23:04;98616.53;;;13.64;47.48
8416;BME280;4245;42.120;24.732;2023-02-04T12:25:31;98602.91;;;13.57;48.46
8416;BME280;4245;42.120;24.732;2023-02-04T12:27:58;98593.75;;;13.69;48.25
8416;BME280;4245;42.120;24.732;2023-02-04T12:30:26;98579.72;;;13.58;48.81
8416;BME280;4245;42.120;24.732;2023-02-04T12:32:54;98591.19;;;13.87;48.59
8416;BME280;4245;42.120;24.732;2023-02-04T12:35:21;98604.41;;;13.88;47.80
8416;BME280;4245;42.120;24.732;2023-02-04T12:37:48;98606.00;;;13.33;49.30
8416;BME280;4245;42.120;24.732;2023-02-04T12:40:16;98598.44;;;13.38;49.52
8416;BME280;4245;42.120;24.732;2023-02-04T12:42:43;98616.31;;;12.79;50.79
8416;BME280;4245;42.120;24.732;2023-02-04T12:45:11;98607.00;;;12.54;51.48
8416;BME280;4245;42.120;24.732;2023-02-04T12:47:38;98616.06;;;12.32;52.87
8416;BME280;4245;42.120;24.732;2023-02-04T12:50:08;98611.00;;;11.99;52.90
8416;BME280;4245;42.120;24.732;2023-02-04T12:52:35;98618.56;;;11.73;54.06
8416;BME280;4245;42.120;24.732;2023-02-04T12:55:04;98617.56;;;11.53;55.23
8416;BME280;4245;42.120;24.732;2023-02-04T12:57:31;98622.66;;;11.56;55.43
8416;BME280;4245;42.120;24.732;2023-02-04T12:59:58;98613.09;;;11.54;55.71
8416;BME280;4245;42.120;24.732;2023-02-04T13:02:26;98611.03;;;11.37;56.06
8416;BME280;4245;42.120;24.732;2023-02-04T13:04:53;98632.75;;;11.42;55.48
8416;BME280;4245;42.120;24.732;2023-02-04T13:07:22;98605.09;;;11.12;55.90
8416;BME280;4245;42.120;24.732;2023-02-04T13:09:49;98610.34;;;10.92;56.46
8416;BME280;4245;42.120;24.732;2023-02-04T13:12:16;98623.72;;;10.58;57.03
8416;BME280;4245;42.120;24.732;2023-02-04T13:14:43;98632.06;;;10.54;57.68
8416;BME280;4245;42.120;24.732;2023-02-04T13:17:10;98614.22;;;10.44;58.37
8416;BME280;4245;42.120;24.732;2023-02-04T13:19:37;98625.53;;;10.46;58.87
8416;BME280;4245;42.120;24.732;2023-02-04T13:22:04;98633.03;;;10.53;59.11
8416;BME280;4245;42.120;24.732;2023-02-04T13:24:32;98618.31;;;10.60;58.88